createdAt,value
2022-09-27T00:01:08.672Z,57380.03
2022-09-27T00:03:35.455Z,57357.06
2022-09-27T00:06:19.174Z,57382.13
2022-09-27T00:08:45.978Z,57354.97
2022-09-27T00:11:43.754Z,57367.50
2022-09-27T00:14:12.880Z,57359.16
2022-09-27T00:16:41.663Z,57348.72
2022-09-27T00:19:12.081Z,57350.81
2022-09-27T00:21:38.665Z,57359.16
2022-09-27T00:24:05.848Z,57346.63
2022-09-27T00:26:33.066Z,57363.31
2022-09-27T00:28:59.756Z,57392.56
2022-09-27T00:31:29.853Z,57348.72
2022-09-27T00:33:59.396Z,57377.94
2022-09-27T00:36:27.455Z,57344.53
2022-09-27T00:38:55.068Z,57396.72
2022-09-27T00:41:32.304Z,57354.97
2022-09-27T00:44:04.956Z,57363.31
2022-09-27T00:46:48.046Z,57367.50
2022-09-27T00:49:31.607Z,57359.16
2022-09-27T00:52:03.741Z,57403.00
2022-09-27T00:54:34.131Z,57388.38
2022-09-27T00:57:01.598Z,57398.81
2022-09-27T00:59:36.243Z,57344.53
2022-09-27T01:02:06.255Z,57375.84
2022-09-27T01:04:34.823Z,57371.69
2022-09-27T01:07:01.468Z,57400.91
2022-09-27T01:09:29.337Z,57382.13
2022-09-27T01:12:01.796Z,57396.72
2022-09-27T01:14:37.242Z,57396.72
2022-09-27T01:17:15.793Z,57375.84
2022-09-27T01:20:06.813Z,57336.19
2022-09-27T01:22:36.607Z,57388.38
2022-09-27T01:25:47.228Z,57340.38
2022-09-27T01:28:26.599Z,57338.28
2022-09-27T01:31:09.065Z,57388.38
2022-09-27T01:33:56.379Z,57367.50
2022-09-27T01:36:54.391Z,57327.84
2022-09-27T01:39:23.991Z,57367.50
2022-09-27T01:41:59.418Z,57380.03
2022-09-27T01:44:39.603Z,57375.84
2022-09-27T01:47:15.601Z,57367.50
2022-09-27T01:50:17.967Z,57361.25
2022-09-27T01:53:00.636Z,57359.16
2022-09-27T01:55:32.698Z,57354.97
2022-09-27T01:58:06.683Z,57398.81
2022-09-27T02:00:34.942Z,57363.31
2022-09-27T02:03:14.753Z,57371.69
2022-09-27T02:05:54.308Z,57413.44
2022-09-27T02:08:56.664Z,57363.31
2022-09-27T02:11:23.548Z,57384.19
2022-09-27T02:13:57.056Z,57409.25
2022-09-27T02:16:45.794Z,57384.19
2022-09-27T02:19:38.660Z,57365.41
2022-09-27T02:22:31.656Z,57375.84
2022-09-27T02:25:19.705Z,57384.19
2022-09-27T02:27:50.990Z,57371.69
2022-09-27T02:30:18.401Z,57371.69
2022-09-27T02:32:45.315Z,57375.84
2022-09-27T02:35:33.183Z,57371.69
2022-09-27T02:38:01.126Z,57363.31
2022-09-27T02:40:33.134Z,57369.59
2022-09-27T02:43:01.942Z,57384.19
2022-09-27T02:45:37.706Z,57369.59
2022-09-27T02:48:14.923Z,57369.59
2022-09-27T02:50:44.318Z,57400.91
2022-09-27T02:53:27.464Z,57346.63
2022-09-27T02:56:03.399Z,57386.28
2022-09-27T02:59:02.285Z,57380.03
2022-09-27T03:02:21.429Z,57386.28
2022-09-27T03:04:54.683Z,57380.03
2022-09-27T03:07:22.579Z,57423.88
2022-09-27T03:09:52.705Z,57375.84
2022-09-27T03:12:26.028Z,57363.31
2022-09-27T03:14:58.173Z,57396.72
2022-09-27T03:17:25.317Z,57390.47
2022-09-27T03:19:52.133Z,57388.38
2022-09-27T03:22:19.544Z,57386.28
2022-09-27T03:24:46.232Z,57390.47
2022-09-27T03:27:13.040Z,57377.94
2022-09-27T03:29:39.780Z,57357.06
2022-09-27T03:32:06.422Z,57417.59
2022-09-27T03:34:33.063Z,57350.81
2022-09-27T03:36:59.739Z,57384.19
2022-09-27T03:39:26.787Z,57388.38
2022-09-27T03:41:53.446Z,57394.63
2022-09-27T03:44:20.126Z,57384.19
2022-09-27T03:46:47.051Z,57377.94
2022-09-27T03:49:14.321Z,57354.97
2022-09-27T03:51:42.057Z,57369.59
2022-09-27T03:54:09.048Z,57359.16
2022-09-27T03:56:35.920Z,57359.16
2022-09-27T03:59:02.611Z,57371.69
2022-09-27T04:01:29.317Z,57346.63
2022-09-27T04:03:56.197Z,57392.56
2022-09-27T04:06:24.007Z,57394.63
2022-09-27T04:08:50.834Z,57380.03
2022-09-27T04:11:17.677Z,57384.19
2022-09-27T04:13:44.665Z,57392.56
2022-09-27T04:16:11.391Z,57359.16
2022-09-27T04:18:38.082Z,57365.41
2022-09-27T04:21:04.902Z,57373.75
2022-09-27T04:23:31.853Z,57344.53
2022-09-27T04:25:58.663Z,57421.78
2022-09-27T04:28:25.402Z,57394.63
2022-09-27T04:30:52.405Z,57350.81
2022-09-27T04:33:19.467Z,57377.94
2022-09-27T04:36:04.528Z,57384.19
2022-09-27T04:38:31.190Z,57380.03
2022-09-27T04:40:57.976Z,57386.28
2022-09-27T04:43:24.699Z,57373.75
2022-09-27T04:45:51.507Z,57375.84
2022-09-27T04:48:18.643Z,57313.22
2022-09-27T04:50:45.299Z,57386.28
2022-09-27T04:53:15.798Z,57375.84
2022-09-27T04:55:47.804Z,57388.38
2022-09-27T04:58:15.126Z,57342.47
2022-09-27T05:00:45.510Z,57354.97
2022-09-27T05:03:12.166Z,57354.97
2022-09-27T05:05:38.861Z,57369.59
2022-09-27T05:08:05.867Z,57342.47
2022-09-27T05:10:32.915Z,57386.28
2022-09-27T05:12:59.597Z,57392.56
2022-09-27T05:15:26.302Z,57405.06
2022-09-27T05:17:53.238Z,57382.13
2022-09-27T05:20:20.030Z,57363.31
2022-09-27T05:22:48.240Z,57371.69
2022-09-27T05:25:14.912Z,57411.34
2022-09-27T05:27:41.639Z,67554.72
2022-09-27T05:30:08.622Z,67554.72
2022-09-27T05:32:35.906Z,67554.72
2022-09-27T05:35:02.626Z,67554.72
2022-09-27T05:37:31.543Z,67554.72
2022-09-27T05:39:58.527Z,67554.72
2022-09-27T05:42:25.328Z,67554.72
2022-09-27T05:44:52.555Z,67554.72
2022-09-27T05:47:19.365Z,67554.72
2022-09-27T05:49:46.296Z,67554.72
2022-09-27T05:52:16.039Z,67554.72
2022-09-27T05:54:44.191Z,67554.72
2022-09-27T05:57:10.915Z,67554.72
2022-09-27T05:59:37.550Z,67554.72
2022-09-27T06:02:04.430Z,67554.72
2022-09-27T06:04:31.064Z,67554.72
2022-09-27T06:06:59.129Z,67554.72
2022-09-27T06:09:27.501Z,67554.72
2022-09-27T06:11:54.124Z,67554.72
2022-09-27T06:14:20.992Z,67554.72
2022-09-27T06:16:48.190Z,67554.72
2022-09-27T06:19:15.309Z,67554.72
2022-09-27T06:21:42.079Z,67554.72
2022-09-27T06:24:08.760Z,67554.72
2022-09-27T06:26:35.763Z,67554.72
2022-09-27T06:29:02.861Z,67554.72
2022-09-27T06:31:29.410Z,67554.72
2022-09-27T06:33:56.384Z,67554.72
2022-09-27T06:36:23.267Z,67554.72
2022-09-27T06:38:49.895Z,67554.72
2022-09-27T06:41:16.838Z,67554.72
2022-09-27T06:43:43.467Z,67554.72
2022-09-27T06:46:10.298Z,67554.72
2022-09-27T06:48:38.592Z,67554.72
2022-09-27T06:51:05.796Z,67554.72
2022-09-27T06:53:32.521Z,67554.72
2022-09-27T06:56:02.807Z,67554.72
2022-09-27T06:58:48.312Z,67554.72
2022-09-27T07:01:15.454Z,67554.72
2022-09-27T07:03:43.330Z,67554.72
2022-09-27T07:06:18.922Z,67554.72
2022-09-27T07:08:45.665Z,67554.72
2022-09-27T07:11:12.539Z,67554.72
2022-09-27T07:13:43.036Z,67554.72
2022-09-27T07:16:14.159Z,67554.72
2022-09-27T07:18:42.640Z,67554.72
2022-09-27T07:21:09.864Z,67554.72
2022-09-27T07:23:37.579Z,67554.72
2022-09-27T07:26:05.796Z,67554.72
2022-09-27T07:28:33.433Z,67554.72
2022-09-27T07:31:00.467Z,67554.72
2022-09-27T07:33:27.184Z,67554.72
2022-09-27T07:35:54.192Z,67554.72
2022-09-27T07:38:21.154Z,67554.72
2022-09-27T07:40:48.473Z,67554.72
2022-09-27T07:43:15.520Z,67554.72
2022-09-27T07:45:42.260Z,67554.72
2022-09-27T07:48:12.921Z,67554.72
2022-09-27T07:50:40.178Z,67554.72
2022-09-27T07:53:07.737Z,67554.72
2022-09-27T07:55:35.012Z,67554.72
2022-09-27T07:58:08.129Z,67554.72
2022-09-27T08:00:36.891Z,67554.72
2022-09-27T08:03:22.102Z,67554.72
2022-09-27T08:05:48.887Z,67554.72
2022-09-27T08:08:17.379Z,67554.72
2022-09-27T08:10:47.297Z,67554.72
2022-09-27T08:13:18.132Z,67554.72
2022-09-27T08:15:44.939Z,67554.72
2022-09-27T08:18:11.643Z,67554.72
2022-09-27T08:20:38.362Z,67554.72
2022-09-27T08:23:05.196Z,67554.72
2022-09-27T08:25:31.944Z,67554.72
2022-09-27T08:28:00.670Z,67554.72
2022-09-27T08:30:32.805Z,67554.72
2022-09-27T08:33:01.486Z,67554.72
2022-09-27T08:35:28.970Z,67554.72
2022-09-27T08:38:00.750Z,67554.72
2022-09-27T08:40:46.173Z,67554.72
2022-09-27T08:43:31.572Z,67554.72
2022-09-27T08:46:21.702Z,67554.72
2022-09-27T08:48:53.929Z,67554.72
2022-09-27T08:51:25.320Z,67554.72
2022-09-27T08:54:02.166Z,67554.72
2022-09-27T08:56:29.034Z,67554.72
2022-09-27T08:59:10.496Z,67554.72
2022-09-27T09:01:37.581Z,67554.72
2022-09-27T09:04:04.920Z,67554.72
2022-09-27T09:06:46.170Z,67554.72
2022-09-27T09:09:18.860Z,67554.72
2022-09-27T09:12:24.481Z,67554.72
2022-09-27T09:14:54.193Z,67554.72
2022-09-27T09:17:44.049Z,67554.72
2022-09-27T09:20:17.000Z,67554.72
2022-09-27T09:22:50.070Z,67554.72
2022-09-27T09:26:04.054Z,67554.72
2022-09-27T09:28:55.414Z,67554.72
2022-09-27T09:32:13.057Z,67554.72
2022-09-27T09:34:49.647Z,67554.72
2022-09-27T09:37:16.267Z,67554.72
2022-09-27T09:39:51.814Z,67554.72
2022-09-27T09:42:42.024Z,67554.72
2022-09-27T09:45:19.486Z,67554.72
2022-09-27T09:48:18.527Z,67554.72
2022-09-27T09:50:51.346Z,67554.72
2022-09-27T09:53:29.204Z,67554.72
2022-09-27T09:56:01.165Z,67554.72
2022-09-27T09:58:33.618Z,67554.72
2022-09-27T10:01:16.604Z,67554.72
2022-09-27T10:03:44.085Z,67554.72
2022-09-27T10:06:12.855Z,67554.72
2022-09-27T10:08:40.015Z,67554.72
2022-09-27T10:11:07.390Z,67554.72
2022-09-27T10:13:36.247Z,67554.72
2022-09-27T10:16:10.345Z,67554.72
2022-09-27T10:18:38.955Z,67554.72
2022-09-27T10:21:23.042Z,67554.72
2022-09-27T10:24:04.809Z,67554.72
2022-09-27T10:26:33.478Z,67554.72
2022-09-27T10:29:22.364Z,67554.72
2022-09-27T10:31:50.609Z,67554.72
2022-09-27T10:34:23.103Z,67554.72
2022-09-27T10:37:22.227Z,67554.72
2022-09-27T10:39:53.824Z,67554.72
2022-09-27T10:42:39.128Z,67554.72
2022-09-27T10:45:31.130Z,67554.72
2022-09-27T10:48:00.814Z,67554.72
2022-09-27T10:50:49.838Z,67554.72
2022-09-27T10:53:20.891Z,67554.72
2022-09-27T10:55:50.883Z,67554.72
2022-09-27T10:58:27.075Z,67554.72
2022-09-27T11:01:01.453Z,67554.72
2022-09-27T11:03:30.363Z,67554.72
2022-09-27T11:05:59.469Z,67554.72
2022-09-27T11:08:33.892Z,67554.72
2022-09-27T11:11:28.507Z,67554.72
2022-09-27T11:14:00.971Z,67554.72
2022-09-27T11:16:42.175Z,67554.72
2022-09-27T11:19:30.417Z,67554.72
2022-09-27T11:22:29.176Z,67554.72
2022-09-27T11:25:12.968Z,67554.72
2022-09-27T11:28:04.369Z,67554.72
2022-09-27T11:30:53.203Z,67554.72
2022-09-27T11:33:52.040Z,67554.72
2022-09-27T11:36:27.657Z,67554.72
2022-09-27T11:39:12.526Z,67554.72
2022-09-27T11:42:00.848Z,67554.72
2022-09-27T11:44:48.935Z,67554.72
2022-09-27T11:47:29.439Z,67554.72
2022-09-27T11:50:12.841Z,67554.72
2022-09-27T11:52:54.424Z,67554.72
2022-09-27T11:55:21.076Z,67554.72
2022-09-27T11:57:53.516Z,67554.72
2022-09-27T12:00:20.944Z,67554.72
2022-09-27T12:03:12.309Z,67554.72
2022-09-27T12:06:07.705Z,67554.72
2022-09-27T12:08:40.437Z,67554.72
2022-09-27T12:11:25.368Z,67554.72
2022-09-27T12:13:57.786Z,67554.72
2022-09-27T12:16:27.462Z,67554.72
2022-09-27T12:18:55.599Z,67554.72
2022-09-27T12:21:23.157Z,67554.72
2022-09-27T12:23:53.483Z,67554.72
2022-09-27T12:26:43.186Z,67554.72
2022-09-27T12:29:25.792Z,67554.72
2022-09-27T12:32:11.001Z,67554.72
2022-09-27T12:34:44.453Z,67554.72
2022-09-27T12:37:18.589Z,67554.72
2022-09-27T12:39:57.519Z,67554.72
2022-09-27T12:42:44.175Z,67554.72
2022-09-27T12:45:15.367Z,67554.72
2022-09-27T12:48:17.445Z,67554.72
2022-09-27T12:50:52.865Z,67554.72
2022-09-27T12:53:29.294Z,67554.72
2022-09-27T12:56:16.175Z,67554.72
2022-09-27T12:58:54.784Z,67554.72
2022-09-27T13:01:34.143Z,67554.72
2022-09-27T13:04:25.393Z,67554.72
2022-09-27T13:07:05.790Z,67554.72
2022-09-27T13:09:41.228Z,67554.72
2022-09-27T13:12:27.148Z,67554.72
2022-09-27T13:15:19.517Z,67554.72
2022-09-27T13:17:50.249Z,67554.72
2022-09-27T13:20:35.241Z,67554.72
2022-09-27T13:23:29.247Z,67554.72
2022-09-27T13:26:00.946Z,67554.72
2022-09-27T13:28:33.493Z,67554.72
2022-09-27T13:31:05.599Z,67554.72
2022-09-27T13:33:49.123Z,67554.72
2022-09-27T13:36:22.987Z,67554.72
2022-09-27T13:39:15.857Z,67554.72
2022-09-27T13:41:45.453Z,67554.72
2022-09-27T13:44:49.458Z,67554.72
2022-09-27T13:47:32.430Z,67554.72
2022-09-27T13:50:27.581Z,67554.72
2022-09-27T13:53:26.374Z,67554.72
2022-09-27T13:55:54.061Z,67554.72
2022-09-27T13:58:44.049Z,67554.72
2022-09-27T14:01:28.507Z,67554.72
2022-09-27T14:04:01.491Z,67554.72
2022-09-27T14:06:41.945Z,67554.72
2022-09-27T14:09:20.935Z,67554.72
2022-09-27T14:11:55.427Z,67554.72
2022-09-27T14:14:29.625Z,67554.72
2022-09-27T14:16:59.923Z,67554.72
2022-09-27T14:19:27.773Z,67554.72
2022-09-27T14:21:55.596Z,67554.72
2022-09-27T14:24:29.006Z,67554.72
2022-09-27T14:27:27.187Z,67554.72
2022-09-27T14:29:56.683Z,67554.72
2022-09-27T14:32:26.369Z,67554.72
2022-09-27T14:35:38.057Z,67554.72
2022-09-27T14:38:36.666Z,67554.72
2022-09-27T14:41:07.644Z,67554.72
2022-09-27T14:43:37.287Z,67554.72
2022-09-27T14:46:09.683Z,67554.72
2022-09-27T14:48:40.470Z,67554.72
2022-09-27T14:51:14.277Z,67554.72
2022-09-27T14:53:57.341Z,67554.72
2022-09-27T14:56:30.438Z,67554.72
2022-09-27T14:59:16.426Z,67554.72
2022-09-27T15:01:54.048Z,67554.72
2022-09-27T15:04:23.365Z,67554.72
2022-09-27T15:06:50.692Z,67554.72
2022-09-27T15:09:19.165Z,67554.72
2022-09-27T15:11:51.584Z,67554.72
2022-09-27T15:14:22.630Z,67554.72
2022-09-27T15:16:52.131Z,67554.72
2022-09-27T15:19:28.188Z,67554.72
2022-09-27T15:21:55.797Z,67554.72
2022-09-27T15:24:40.765Z,67554.72
2022-09-27T15:27:24.202Z,67554.72
2022-09-27T15:29:55.754Z,67554.72
2022-09-27T15:32:26.184Z,67554.72
2022-09-27T15:34:53.983Z,67554.72
2022-09-27T15:37:33.752Z,67554.72
2022-09-27T15:40:44.847Z,67554.72
2022-09-27T15:43:33.018Z,67554.72
2022-09-27T15:46:03.729Z,67554.72
2022-09-27T15:48:32.848Z,67554.72
2022-09-27T15:51:00.951Z,67554.72
2022-09-27T15:53:33.624Z,67554.72
2022-09-27T15:56:01.914Z,67554.72
2022-09-27T15:58:29.375Z,67554.72
2022-09-27T16:00:57.543Z,67554.72
2022-09-27T16:03:25.726Z,67554.72
2022-09-27T16:05:55.499Z,67554.72
2022-09-27T16:08:23.108Z,67554.72
2022-09-27T16:10:52.758Z,67554.72
2022-09-27T16:13:19.379Z,67554.72
2022-09-27T16:15:47.783Z,67554.72
2022-09-27T16:18:14.439Z,67554.72
2022-09-27T16:20:41.473Z,67554.72
2022-09-27T16:23:08.588Z,67554.72
2022-09-27T16:25:35.355Z,67554.72
2022-09-27T16:28:04.197Z,67554.72
2022-09-27T16:30:32.846Z,67554.72
2022-09-27T16:32:59.891Z,67554.72
2022-09-27T16:35:28.488Z,67554.72
2022-09-27T16:37:55.314Z,67554.72
2022-09-27T16:40:22.920Z,67554.72
2022-09-27T16:42:49.986Z,67554.72
2022-09-27T16:45:19.205Z,67554.72
2022-09-27T16:47:46.652Z,67554.72
2022-09-27T16:50:33.692Z,67554.72
2022-09-27T16:53:00.452Z,67554.72
2022-09-27T16:55:28.947Z,67554.72
2022-09-27T16:57:58.770Z,67554.72
2022-09-27T17:00:25.941Z,67554.72
2022-09-27T17:02:53.371Z,67554.72
2022-09-27T17:05:20.918Z,67554.72
2022-09-27T17:07:51.883Z,67554.72
2022-09-27T17:10:19.637Z,67554.72
2022-09-27T17:12:47.471Z,67554.72
2022-09-27T17:15:14.992Z,67554.72
2022-09-27T17:17:42.087Z,67554.72
2022-09-27T17:20:08.679Z,67554.72
2022-09-27T17:22:35.307Z,67554.72
2022-09-27T17:25:01.915Z,67554.72
2022-09-27T17:27:28.694Z,67554.72
2022-09-27T17:29:55.739Z,67554.72
2022-09-27T17:32:22.948Z,67554.72
2022-09-27T17:34:49.676Z,67554.72
2022-09-27T17:37:16.725Z,67554.72
2022-09-27T17:39:43.705Z,67554.72
2022-09-27T17:42:11.392Z,67554.72
2022-09-27T17:44:38.173Z,67554.72
2022-09-27T17:47:23.814Z,67554.72
2022-09-27T17:50:08.971Z,67554.72
2022-09-27T17:52:35.612Z,67554.72
2022-09-27T17:55:03.466Z,67554.72
2022-09-27T17:57:30.381Z,67554.72
2022-09-27T17:59:58.251Z,67554.72
2022-09-27T18:02:26.337Z,67554.72
2022-09-27T18:04:53.115Z,67554.72
2022-09-27T18:07:20.046Z,67554.72
2022-09-27T18:09:46.837Z,67554.72
2022-09-27T18:12:13.902Z,67554.72
2022-09-27T18:14:40.703Z,67554.72
2022-09-27T18:17:27.836Z,67554.72
2022-09-27T18:19:57.038Z,67554.72
2022-09-27T18:22:30.373Z,67554.72
2022-09-27T18:24:57.300Z,67554.72
2022-09-27T18:27:23.908Z,67554.72
2022-09-27T18:29:50.539Z,67554.72
2022-09-27T18:32:17.118Z,67554.72
2022-09-27T18:34:43.859Z,67554.72
2022-09-27T18:37:10.825Z,67554.72
2022-09-27T18:39:37.715Z,67554.72
2022-09-27T18:42:04.646Z,67554.72
2022-09-27T18:44:31.387Z,67554.72
2022-09-27T18:46:58.796Z,67554.72
2022-09-27T18:49:27.772Z,67554.72
2022-09-27T18:51:57.277Z,67554.72
2022-09-27T18:54:24.303Z,67554.72
2022-09-27T18:56:52.347Z,67554.72
2022-09-27T18:59:20.950Z,67554.72
2022-09-27T19:01:47.899Z,67554.72
2022-09-27T19:04:21.514Z,67554.72
2022-09-27T19:06:51.459Z,67554.72
2022-09-27T19:09:18.412Z,67554.72
2022-09-27T19:11:45.442Z,67554.72
2022-09-27T19:14:17.561Z,67554.72
2022-09-27T19:16:47.508Z,67554.72
2022-09-27T19:19:15.890Z,67554.72
2022-09-27T19:21:42.721Z,67554.72
2022-09-27T19:24:09.538Z,67554.72
2022-09-27T19:26:36.170Z,67554.72
2022-09-27T19:29:04.132Z,67554.72
2022-09-27T19:31:31.368Z,67554.72
2022-09-27T19:34:00.992Z,67554.72
2022-09-27T19:36:30.371Z,67554.72
2022-09-27T19:38:58.739Z,67554.72
2022-09-27T19:41:26.937Z,67554.72
2022-09-27T19:43:55.323Z,67554.72
2022-09-27T19:46:23.635Z,67554.72
2022-09-27T19:48:50.667Z,67554.72
2022-09-27T19:51:22.766Z,67554.72
2022-09-27T19:53:50.061Z,67554.72
2022-09-27T19:56:16.983Z,67554.72
2022-09-27T19:58:44.114Z,67554.72
2022-09-27T20:01:20.614Z,67554.72
2022-09-27T20:03:49.593Z,67554.72
2022-09-27T20:06:18.937Z,67554.72
2022-09-27T20:08:47.986Z,67554.72
2022-09-27T20:11:20.307Z,67554.72
2022-09-27T20:13:47.636Z,67554.72
2022-09-27T20:16:17.716Z,67554.72
2022-09-27T20:18:49.164Z,67554.72
2022-09-27T20:21:17.477Z,67554.72
2022-09-27T20:23:44.530Z,67554.72
2022-09-27T20:26:14.148Z,67554.72
2022-09-27T20:28:45.632Z,67554.72
2022-09-27T20:31:17.865Z,67554.72
2022-09-27T20:33:46.498Z,67554.72
2022-09-27T20:36:18.972Z,67554.72
2022-09-27T20:38:48.166Z,67554.72
2022-09-27T20:41:18.222Z,67554.72
2022-09-27T20:43:45.947Z,67554.72
2022-09-27T20:46:17.905Z,67554.72
2022-09-27T20:48:46.704Z,67554.72
2022-09-27T20:51:14.338Z,67554.72
2022-09-27T20:53:42.698Z,67554.72
2022-09-27T20:56:23.731Z,67554.72
2022-09-27T20:58:52.517Z,67554.72
2022-09-27T21:01:20.727Z,67554.72
2022-09-27T21:03:49.860Z,67554.72
2022-09-27T21:06:16.681Z,67554.72
2022-09-27T21:08:43.301Z,67554.72
2022-09-27T21:11:12.519Z,67554.72
2022-09-27T21:13:40.749Z,67554.72
2022-09-27T21:16:09.939Z,67554.72
2022-09-27T21:18:36.990Z,67554.72
2022-09-27T21:21:05.476Z,67554.72
2022-09-27T21:23:33.651Z,67554.72
2022-09-27T21:26:05.826Z,67554.72
2022-09-27T21:28:37.246Z,67554.72
2022-09-27T21:31:09.504Z,67554.72
2022-09-27T21:33:37.108Z,67554.72
2022-09-27T21:36:05.193Z,67554.72
2022-09-27T21:38:32.874Z,67554.72
2022-09-27T21:41:05.378Z,67554.72
2022-09-27T21:43:34.674Z,67554.72
2022-09-27T21:46:06.966Z,67554.72
2022-09-27T21:48:34.797Z,67554.72
2022-09-27T21:51:11.634Z,67554.72
2022-09-27T21:53:39.995Z,67554.72
2022-09-27T21:56:07.589Z,67554.72
2022-09-27T21:58:39.760Z,67554.72
2022-09-27T22:01:11.410Z,67554.72
2022-09-27T22:03:39.594Z,67554.72
2022-09-27T22:06:09.733Z,67554.72
2022-09-27T22:08:37.195Z,67554.72
2022-09-27T22:11:04.958Z,67554.72
2022-09-27T22:13:32.168Z,67554.72
2022-09-27T22:16:03.890Z,67554.72
2022-09-27T22:18:30.547Z,67554.72
2022-09-27T22:21:02.654Z,67554.72
2022-09-27T22:23:29.823Z,67554.72
2022-09-27T22:25:57.263Z,67554.72
2022-09-27T22:28:25.230Z,67554.72
2022-09-27T22:30:52.076Z,67554.72
2022-09-27T22:33:19.365Z,67554.72
2022-09-27T22:35:49.664Z,67554.72
2022-09-27T22:38:16.366Z,67554.72
2022-09-27T22:40:43.054Z,67554.72
2022-09-27T22:43:09.831Z,67554.72
2022-09-27T22:45:36.659Z,67554.72
2022-09-27T22:48:03.328Z,67554.72
2022-09-27T22:50:30.968Z,67554.72
2022-09-27T22:52:57.782Z,67554.72
2022-09-27T22:55:24.863Z,67554.72
2022-09-27T22:57:51.487Z,67554.72
2022-09-27T23:00:18.130Z,67554.72
2022-09-27T23:02:44.898Z,67554.72
2022-09-27T23:05:11.535Z,67554.72
2022-09-27T23:07:38.099Z,67554.72
2022-09-27T23:10:05.397Z,67554.72
2022-09-27T23:12:31.927Z,67554.72
2022-09-27T23:14:58.599Z,67554.72
2022-09-27T23:17:25.170Z,67554.72
2022-09-27T23:19:51.731Z,67554.72
2022-09-27T23:22:18.918Z,67554.72
2022-09-27T23:24:45.505Z,67554.72
2022-09-27T23:27:30.444Z,67554.72
2022-09-27T23:29:57.166Z,67554.72
2022-09-27T23:32:23.708Z,67554.72
2022-09-27T23:34:50.327Z,67554.72
2022-09-27T23:37:17.004Z,67554.72
2022-09-27T23:39:43.614Z,67554.72
2022-09-27T23:42:10.287Z,67554.72
2022-09-27T23:44:36.933Z,67554.72
2022-09-27T23:47:04.305Z,67554.72
2022-09-27T23:49:32.282Z,67554.72
2022-09-27T23:52:00.754Z,67554.72
2022-09-27T23:54:28.199Z,67554.72
2022-09-27T23:56:55.371Z,67554.72
2022-09-27T23:59:22.062Z,67554.72
